createdAt,value
2022-08-24T00:02:01.368Z,11.80
2022-08-24T00:04:32.129Z,11.52
2022-08-24T00:07:01.170Z,10.82
2022-08-24T00:09:29.547Z,11.75
2022-08-24T00:11:57.971Z,13.98
2022-08-24T00:14:28.119Z,16.15
2022-08-24T00:16:56.399Z,14.43
2022-08-24T00:19:24.935Z,14.85
2022-08-24T00:21:53.485Z,13.50
2022-08-24T00:24:22.071Z,14.50
2022-08-24T00:26:50.271Z,15.30
2022-08-24T00:29:19.793Z,13.43
2022-08-24T00:31:49.934Z,15.80
2022-08-24T00:34:18.928Z,15.75
2022-08-24T00:36:47.999Z,13.82
2022-08-24T00:39:16.522Z,16.00
2022-08-24T00:41:51.060Z,16.92
2022-08-24T00:44:20.717Z,17.00
2022-08-24T00:46:57.065Z,16.52
2022-08-24T00:49:31.357Z,14.10
2022-08-24T00:52:06.377Z,14.88
2022-08-24T00:54:45.955Z,15.88
2022-08-24T00:57:19.356Z,18.35
2022-08-24T00:59:51.352Z,16.83
2022-08-24T01:02:26.215Z,15.73
2022-08-24T01:04:57.021Z,18.35
2022-08-24T01:07:27.963Z,12.35
2022-08-24T01:10:00.342Z,15.25
2022-08-24T01:12:30.604Z,15.57
2022-08-24T01:15:00.407Z,15.73
2022-08-24T01:17:48.025Z,15.77
2022-08-24T01:20:16.821Z,15.20
2022-08-24T01:22:58.211Z,17.77
2022-08-24T01:25:31.241Z,15.98
2022-08-24T01:28:06.578Z,16.13
2022-08-24T01:30:36.665Z,15.85
2022-08-24T01:33:07.828Z,15.75
2022-08-24T01:35:38.085Z,14.73
2022-08-24T01:38:11.729Z,13.98
2022-08-24T01:40:45.784Z,14.23
2022-08-24T01:43:15.366Z,14.18
2022-08-24T01:45:44.072Z,15.98
2022-08-24T01:48:13.848Z,15.32
2022-08-24T01:50:43.381Z,12.63
2022-08-24T01:53:11.540Z,14.50
2022-08-24T01:55:41.621Z,16.88
2022-08-24T01:58:10.361Z,14.80
2022-08-24T02:00:38.946Z,17.25
2022-08-24T02:03:07.981Z,15.95
2022-08-24T02:05:36.930Z,13.52
2022-08-24T02:08:05.507Z,19.17
2022-08-24T02:10:35.374Z,14.48
2022-08-24T02:13:06.402Z,16.58
2022-08-24T02:15:40.074Z,18.20
2022-08-24T02:18:15.239Z,17.00
2022-08-24T02:20:44.395Z,18.92
2022-08-24T02:23:12.847Z,16.83
2022-08-24T02:25:41.076Z,15.07
2022-08-24T02:28:10.812Z,17.20
2022-08-24T02:30:40.465Z,17.20
2022-08-24T02:33:09.268Z,19.05
2022-08-24T02:35:37.800Z,15.38
2022-08-24T02:38:06.269Z,14.02
2022-08-24T02:40:34.490Z,15.52
2022-08-24T02:43:03.035Z,18.90
2022-08-24T02:45:33.136Z,19.65
2022-08-24T02:48:01.771Z,21.17
2022-08-24T02:50:29.917Z,20.98
2022-08-24T02:52:58.725Z,23.02
2022-08-24T02:55:27.104Z,20.05
2022-08-24T02:57:55.238Z,18.02
2022-08-24T03:00:25.217Z,18.08
2022-08-24T03:02:56.251Z,20.10
2022-08-24T03:05:26.421Z,22.23
2022-08-24T03:07:54.571Z,19.25
2022-08-24T03:10:23.366Z,19.67
2022-08-24T03:12:52.646Z,21.88
2022-08-24T03:15:24.106Z,20.15
2022-08-24T03:17:54.160Z,19.60
2022-08-24T03:20:23.411Z,20.13
2022-08-24T03:22:51.911Z,17.88
2022-08-24T03:25:22.062Z,18.35
2022-08-24T03:27:50.341Z,19.25
2022-08-24T03:30:18.740Z,19.80
2022-08-24T03:32:47.344Z,21.23
2022-08-24T03:35:18.341Z,16.60
2022-08-24T03:37:47.105Z,17.13
2022-08-24T03:40:22.784Z,15.05
2022-08-24T03:42:53.242Z,20.10
2022-08-24T03:45:23.129Z,17.75
2022-08-24T03:47:51.522Z,15.18
2022-08-24T03:50:21.664Z,15.68
2022-08-24T03:52:50.719Z,17.73
2022-08-24T03:55:19.291Z,18.88
2022-08-24T03:57:47.439Z,17.98
2022-08-24T04:00:16.371Z,15.07
2022-08-24T04:02:45.487Z,17.42
2022-08-24T04:05:14.371Z,14.65
2022-08-24T04:07:44.108Z,16.67
2022-08-24T04:10:15.209Z,13.82
2022-08-24T04:12:43.615Z,16.15
2022-08-24T04:15:13.430Z,14.88
2022-08-24T04:17:41.645Z,15.60
2022-08-24T04:20:11.186Z,16.67
2022-08-24T04:22:39.787Z,13.27
2022-08-24T04:25:10.857Z,12.95
2022-08-24T04:27:39.813Z,15.20
2022-08-24T04:30:09.457Z,16.17
2022-08-24T04:32:38.079Z,18.10
2022-08-24T04:35:08.025Z,16.15
2022-08-24T04:37:36.384Z,13.27
2022-08-24T04:40:05.954Z,12.73
2022-08-24T04:42:37.657Z,13.13
2022-08-24T04:45:06.713Z,15.40
2022-08-24T04:47:35.133Z,15.20
2022-08-24T04:50:03.374Z,15.73
2022-08-24T04:52:31.513Z,14.55
2022-08-24T04:54:59.940Z,16.38
2022-08-24T04:57:28.238Z,20.00
2022-08-24T05:00:00.144Z,15.20
2022-08-24T05:02:28.737Z,14.95
2022-08-24T05:04:58.243Z,16.92
2022-08-24T05:07:27.013Z,15.10
2022-08-24T05:09:56.719Z,16.52
2022-08-24T05:12:27.506Z,20.80
2022-08-24T05:14:56.086Z,21.38
2022-08-24T05:17:26.153Z,18.92
2022-08-24T05:19:54.984Z,18.75
2022-08-24T05:22:23.157Z,17.65
2022-08-24T05:24:51.675Z,26.38
2022-08-24T05:27:20.164Z,21.55
2022-08-24T05:29:54.714Z,24.17
2022-08-24T05:32:22.864Z,21.95
2022-08-24T05:34:52.643Z,19.95
2022-08-24T05:37:20.946Z,21.08
2022-08-24T05:39:49.460Z,22.00
2022-08-24T05:42:17.713Z,18.05
2022-08-24T05:44:45.980Z,19.45
2022-08-24T05:47:14.400Z,24.38
2022-08-24T05:49:43.382Z,20.08
2022-08-24T05:52:13.349Z,19.00
2022-08-24T05:54:41.575Z,17.52
2022-08-24T05:57:11.432Z,17.23
2022-08-24T05:59:40.594Z,15.38
2022-08-24T06:02:09.195Z,16.58
2022-08-24T06:04:38.301Z,19.30
2022-08-24T06:07:10.262Z,16.00
2022-08-24T06:09:40.908Z,12.98
2022-08-24T06:12:10.025Z,15.63
2022-08-24T06:14:38.462Z,14.90
2022-08-24T06:17:08.733Z,14.13
2022-08-24T06:19:37.795Z,12.32
2022-08-24T06:22:06.385Z,15.48
2022-08-24T06:24:55.641Z,15.35
2022-08-24T06:27:26.514Z,15.88
2022-08-24T06:29:57.097Z,16.17
2022-08-24T06:32:25.761Z,15.43
2022-08-24T06:34:57.868Z,15.50
2022-08-24T06:37:29.330Z,17.23
2022-08-24T06:39:59.494Z,15.90
2022-08-24T06:42:31.668Z,17.15
2022-08-24T06:44:59.835Z,20.17
2022-08-24T06:47:28.257Z,16.95
2022-08-24T06:49:59.330Z,18.35
2022-08-24T06:52:27.804Z,16.00
2022-08-24T06:54:56.737Z,13.30
2022-08-24T06:57:25.327Z,13.15
2022-08-24T06:59:55.502Z,18.05
2022-08-24T07:02:23.953Z,15.70
2022-08-24T07:04:52.399Z,17.27
2022-08-24T07:07:20.911Z,15.38
2022-08-24T07:09:49.237Z,17.85
2022-08-24T07:12:17.610Z,15.93
2022-08-24T07:14:45.826Z,16.77
2022-08-24T07:17:15.636Z,17.27
2022-08-24T07:19:44.218Z,15.93
2022-08-24T07:22:12.698Z,15.27
2022-08-24T07:24:41.895Z,15.32
2022-08-24T07:27:10.335Z,13.38
2022-08-24T07:29:56.226Z,14.77
2022-08-24T07:32:29.776Z,15.55
2022-08-24T07:34:58.076Z,17.67
2022-08-24T07:37:36.521Z,17.42
2022-08-24T07:40:10.795Z,18.63
2022-08-24T07:42:40.180Z,19.13
2022-08-24T07:45:09.175Z,16.25
2022-08-24T07:47:43.802Z,16.73
2022-08-24T07:50:13.164Z,14.32
2022-08-24T07:52:41.839Z,13.70
2022-08-24T07:55:11.673Z,14.68
2022-08-24T07:57:40.742Z,12.80
2022-08-24T08:00:14.198Z,17.45
2022-08-24T08:02:46.691Z,17.50
2022-08-24T08:05:16.369Z,15.27
2022-08-24T08:07:46.604Z,14.32
2022-08-24T08:10:16.598Z,14.15
2022-08-24T08:12:44.965Z,14.10
2022-08-24T08:15:13.652Z,15.93
2022-08-24T08:17:43.453Z,14.13
2022-08-24T08:20:12.450Z,13.05
2022-08-24T08:22:58.720Z,15.95
2022-08-24T08:25:27.187Z,13.02
2022-08-24T08:27:58.617Z,11.02
2022-08-24T08:30:33.208Z,8.52
2022-08-24T08:33:03.521Z,9.00
2022-08-24T08:35:34.014Z,11.38
2022-08-24T08:38:02.987Z,8.35
2022-08-24T08:40:44.966Z,8.30
2022-08-24T08:43:25.344Z,5.53
2022-08-24T08:46:13.860Z,6.28
2022-08-24T08:49:08.668Z,3.67
2022-08-24T08:52:19.447Z,6.22
2022-08-24T08:54:58.636Z,4.75
2022-08-24T08:57:47.644Z,6.00
2022-08-24T09:00:19.067Z,7.25
2022-08-24T09:03:21.744Z,8.02
2022-08-24T09:06:29.577Z,8.25
2022-08-24T09:09:21.714Z,7.28
2022-08-24T09:12:01.293Z,7.75
2022-08-24T09:15:04.941Z,7.75
2022-08-24T09:17:58.285Z,5.82
2022-08-24T09:20:55.905Z,6.60
2022-08-24T09:23:33.094Z,7.07
2022-08-24T09:26:10.559Z,6.78
2022-08-24T09:28:45.150Z,6.22
2022-08-24T09:34:20.128Z,7.20
2022-08-24T09:37:01.456Z,5.82
2022-08-24T09:39:38.857Z,6.20
2022-08-24T09:42:42.482Z,4.70
2022-08-24T09:48:17.430Z,6.03
2022-08-24T09:51:22.727Z,6.03
2022-08-24T09:54:27.311Z,5.03
2022-08-24T09:57:12.568Z,6.90
2022-08-24T09:59:55.847Z,4.57
2022-08-24T10:02:37.784Z,5.13
2022-08-24T10:05:13.950Z,5.30
2022-08-24T10:07:51.958Z,3.75
2022-08-24T10:10:31.381Z,4.10
2022-08-24T10:13:11.365Z,3.63
2022-08-24T10:15:52.307Z,5.65
2022-08-24T10:18:39.931Z,6.10
2022-08-24T10:21:19.814Z,4.10
2022-08-24T10:24:01.606Z,6.53
2022-08-24T10:26:41.360Z,5.68
2022-08-24T10:29:28.884Z,4.57
2022-08-24T10:32:12.755Z,4.97
2022-08-24T10:34:54.925Z,2.70
2022-08-24T10:38:26.864Z,4.57
2022-08-24T10:41:08.835Z,5.70
2022-08-24T10:44:13.669Z,3.50
2022-08-24T10:46:49.959Z,3.28
2022-08-24T10:49:56.020Z,4.65
2022-08-24T10:52:52.902Z,4.43
2022-08-24T10:55:24.875Z,4.30
2022-08-24T10:58:14.747Z,4.97
2022-08-24T11:00:43.614Z,5.43
2022-08-24T11:03:15.357Z,2.60
2022-08-24T11:05:48.507Z,4.78
2022-08-24T11:08:22.552Z,4.70
2022-08-24T11:11:08.108Z,4.15
2022-08-24T11:13:38.009Z,4.50
2022-08-24T11:16:07.427Z,4.13
2022-08-24T11:18:50.997Z,3.67
2022-08-24T11:21:40.722Z,2.78
2022-08-24T11:24:13.462Z,3.38
2022-08-24T11:26:53.758Z,3.15
2022-08-24T11:29:27.624Z,2.38
2022-08-24T11:31:56.184Z,3.53
2022-08-24T11:34:34.117Z,3.75
2022-08-24T11:37:04.877Z,3.78
2022-08-24T11:39:37.063Z,4.95
2022-08-24T11:42:15.834Z,4.13
2022-08-24T11:44:49.989Z,2.40
2022-08-24T11:47:34.982Z,2.53
2022-08-24T11:50:15.683Z,3.00
2022-08-24T11:52:54.694Z,3.50
2022-08-24T11:55:27.539Z,3.58
2022-08-24T11:58:11.779Z,4.00
2022-08-24T12:00:48.211Z,4.30
2022-08-24T12:03:48.327Z,3.22
2022-08-24T12:06:32.205Z,5.07
2022-08-24T12:09:11.793Z,5.20
2022-08-24T12:11:45.613Z,3.25
2022-08-24T12:14:22.004Z,4.75
2022-08-24T12:16:57.676Z,3.05
2022-08-24T12:19:29.941Z,3.97
2022-08-24T12:22:01.103Z,3.88
2022-08-24T12:24:33.899Z,3.20
2022-08-24T12:27:06.256Z,3.38
2022-08-24T12:29:39.635Z,5.03
2022-08-24T12:32:13.183Z,3.70
2022-08-24T12:34:51.475Z,4.20
2022-08-24T12:37:25.496Z,4.60
2022-08-24T12:40:02.803Z,3.70
2022-08-24T12:42:39.311Z,3.13
2022-08-24T12:45:11.253Z,2.17
2022-08-24T12:47:46.244Z,3.37
2022-08-24T12:50:25.235Z,3.92
2022-08-24T12:53:35.349Z,2.97
2022-08-24T12:56:37.712Z,3.58
2022-08-24T12:59:15.175Z,6.30
2022-08-24T13:01:48.427Z,2.30
2022-08-24T13:04:31.627Z,4.40
2022-08-24T13:07:03.599Z,4.45
2022-08-24T13:09:35.252Z,2.47
2022-08-24T13:12:45.279Z,3.80
2022-08-24T13:15:48.012Z,3.13
2022-08-24T13:19:17.714Z,4.77
2022-08-24T13:21:52.221Z,3.33
2022-08-24T13:25:04.394Z,2.00
2022-08-24T13:28:11.456Z,4.22
2022-08-24T13:31:15.640Z,2.67
2022-08-24T13:33:48.871Z,3.50
2022-08-24T13:36:56.241Z,3.13
2022-08-24T13:39:54.455Z,3.70
2022-08-24T13:43:02.604Z,3.60
2022-08-24T13:45:38.140Z,4.53
2022-08-24T13:48:39.091Z,3.10
2022-08-24T13:51:33.236Z,2.17
2022-08-24T13:54:20.052Z,2.42
2022-08-24T13:57:27.766Z,4.10
2022-08-24T14:00:17.991Z,3.05
2022-08-24T14:03:03.235Z,2.53
2022-08-24T14:05:37.113Z,4.50
2022-08-24T14:08:23.755Z,2.85
2022-08-24T14:11:00.860Z,3.03
2022-08-24T14:13:50.387Z,4.75
2022-08-24T14:16:53.495Z,2.50
2022-08-24T14:19:29.678Z,3.33
2022-08-24T14:22:04.448Z,4.15
2022-08-24T14:24:45.931Z,5.45
2022-08-24T14:27:37.212Z,2.63
2022-08-24T14:30:44.704Z,3.72
2022-08-24T14:33:33.355Z,2.63
2022-08-24T14:36:20.068Z,3.33
2022-08-24T14:38:58.260Z,3.03
2022-08-24T14:41:48.025Z,4.13
2022-08-24T14:44:25.977Z,3.42
2022-08-24T14:47:04.417Z,2.38
2022-08-24T14:49:44.553Z,3.30
2022-08-24T14:52:24.696Z,5.40
2022-08-24T14:55:05.537Z,6.15
2022-08-24T14:58:02.799Z,4.32
2022-08-24T15:00:50.589Z,2.97
2022-08-24T15:03:44.806Z,2.88
2022-08-24T15:06:27.237Z,5.28
2022-08-24T15:09:08.992Z,5.60
2022-08-24T15:11:41.883Z,5.43
2022-08-24T15:14:22.332Z,4.20
2022-08-24T15:16:55.455Z,2.58
2022-08-24T15:22:01.977Z,3.40
2022-08-24T15:24:38.797Z,5.03
2022-08-24T15:27:20.084Z,3.33
2022-08-24T15:29:55.346Z,3.35
2022-08-24T15:32:28.036Z,3.60
2022-08-24T15:34:59.396Z,5.35
2022-08-24T15:37:30.967Z,9.73
2022-08-24T15:39:59.883Z,5.00
2022-08-24T15:42:31.494Z,3.55
2022-08-24T15:45:03.944Z,4.05
2022-08-24T15:47:34.833Z,5.50
2022-08-24T15:50:07.452Z,4.30
2022-08-24T15:52:48.654Z,4.07
2022-08-24T15:55:35.850Z,4.45
2022-08-24T15:58:30.445Z,2.63
2022-08-24T16:01:38.831Z,4.03
2022-08-24T16:04:09.546Z,4.85
2022-08-24T16:06:45.295Z,2.67
2022-08-24T16:09:35.536Z,3.80
2022-08-24T16:12:06.847Z,3.92
2022-08-24T16:14:38.148Z,7.22
2022-08-24T16:17:27.571Z,3.22
2022-08-24T16:19:59.674Z,3.03
2022-08-24T16:22:33.041Z,4.17
2022-08-24T16:25:22.984Z,3.65
2022-08-24T16:27:59.842Z,8.43
2022-08-24T16:30:39.700Z,3.65
2022-08-24T16:33:09.781Z,2.92
2022-08-24T16:35:38.817Z,4.55
2022-08-24T16:38:07.001Z,3.85
2022-08-24T16:40:36.472Z,5.38
2022-08-24T16:43:04.634Z,4.53
2022-08-24T16:45:36.002Z,2.78
2022-08-24T16:48:05.365Z,4.75
2022-08-24T16:50:35.387Z,5.18
2022-08-24T16:53:03.546Z,4.43
2022-08-24T16:55:32.662Z,4.03
2022-08-24T16:58:02.384Z,3.60
2022-08-24T17:00:30.909Z,3.75
2022-08-24T17:02:59.727Z,4.10
2022-08-24T17:05:29.787Z,2.80
2022-08-24T17:08:01.975Z,4.20
2022-08-24T17:10:33.931Z,3.97
2022-08-24T17:13:05.879Z,4.00
2022-08-24T17:15:34.271Z,6.28
2022-08-24T17:18:05.982Z,5.22
2022-08-24T17:20:34.799Z,4.18
2022-08-24T17:23:05.016Z,3.17
2022-08-24T17:25:33.555Z,4.75
2022-08-24T17:28:02.151Z,8.20
2022-08-24T17:30:30.954Z,6.05
2022-08-24T17:33:00.567Z,5.15
2022-08-24T17:35:29.007Z,7.25
2022-08-24T17:37:57.292Z,4.93
2022-08-24T17:40:28.911Z,4.43
2022-08-24T17:42:57.215Z,2.47
2022-08-24T17:45:26.168Z,3.20
2022-08-24T17:47:54.657Z,2.78
2022-08-24T17:50:24.805Z,3.22
2022-08-24T17:52:58.953Z,4.50
2022-08-24T17:55:30.475Z,4.28
2022-08-24T17:57:59.427Z,4.40
2022-08-24T18:00:27.705Z,6.35
2022-08-24T18:02:56.358Z,4.53
2022-08-24T18:05:24.731Z,4.97
2022-08-24T18:07:56.325Z,5.10
2022-08-24T18:10:28.297Z,5.30
2022-08-24T18:12:58.293Z,3.17
2022-08-24T18:15:30.543Z,4.03
2022-08-24T18:18:08.557Z,4.50
2022-08-24T18:20:39.979Z,5.90
2022-08-24T18:23:11.303Z,3.90
2022-08-24T18:25:45.836Z,4.18
2022-08-24T18:28:16.561Z,3.88
2022-08-24T18:30:45.895Z,4.13
2022-08-24T18:33:14.179Z,3.22
2022-08-24T18:35:42.496Z,4.50
2022-08-24T18:38:11.026Z,3.28
2022-08-24T18:40:40.758Z,4.43
2022-08-24T18:43:24.031Z,4.70
2022-08-24T18:45:53.882Z,6.53
2022-08-24T18:48:23.807Z,5.38
2022-08-24T18:50:52.888Z,7.30
2022-08-24T18:53:22.504Z,6.90
2022-08-24T18:55:50.753Z,8.10
2022-08-24T18:58:19.237Z,6.78
2022-08-24T19:00:50.920Z,5.75
2022-08-24T19:03:22.985Z,5.85
2022-08-24T19:05:51.399Z,4.75
2022-08-24T19:08:19.577Z,5.57
2022-08-24T19:10:48.043Z,4.47
2022-08-24T19:13:18.422Z,3.60
2022-08-24T19:15:49.406Z,4.45
2022-08-24T19:18:20.499Z,3.58
2022-08-24T19:20:54.431Z,4.88
2022-08-24T19:23:25.752Z,4.72
2022-08-24T19:25:54.688Z,4.68
2022-08-24T19:28:23.791Z,3.53
2022-08-24T19:30:55.957Z,4.20
2022-08-24T19:33:27.735Z,5.25
2022-08-24T19:35:56.510Z,6.53
2022-08-24T19:38:26.166Z,3.88
2022-08-24T19:40:57.454Z,5.95
2022-08-24T19:43:27.163Z,4.97
2022-08-24T19:46:04.225Z,5.22
2022-08-24T19:48:33.477Z,5.75
2022-08-24T19:51:04.313Z,5.30
2022-08-24T19:53:33.846Z,5.53
2022-08-24T19:56:03.808Z,5.88
2022-08-24T19:58:41.073Z,5.15
2022-08-24T20:01:15.072Z,7.65
2022-08-24T20:03:43.491Z,5.03
2022-08-24T20:06:12.487Z,4.55
2022-08-24T20:08:41.182Z,6.40
2022-08-24T20:11:10.315Z,5.10
2022-08-24T20:13:38.890Z,5.00
2022-08-24T20:16:10.673Z,6.15
2022-08-24T20:18:41.246Z,5.78
2022-08-24T20:21:10.407Z,6.35
2022-08-24T20:23:39.290Z,5.00
2022-08-24T20:26:09.328Z,6.45
2022-08-24T20:28:43.058Z,5.50
2022-08-24T20:31:11.692Z,4.22
2022-08-24T20:33:41.285Z,8.20
2022-08-24T20:36:15.161Z,5.32
2022-08-24T20:38:45.656Z,5.97
2022-08-24T20:41:14.133Z,4.88
2022-08-24T20:43:42.576Z,7.03
2022-08-24T20:46:11.376Z,8.35
2022-08-24T20:48:43.232Z,6.55
2022-08-24T20:51:11.797Z,6.53
2022-08-24T20:53:40.154Z,5.50
2022-08-24T20:56:12.758Z,6.50
2022-08-24T20:58:41.449Z,6.47
2022-08-24T21:01:10.015Z,6.82
2022-08-24T21:03:38.425Z,6.85
2022-08-24T21:06:09.940Z,5.55
2022-08-24T21:08:38.294Z,6.85
2022-08-24T21:11:07.486Z,6.82
2022-08-24T21:13:35.767Z,8.30
2022-08-24T21:16:04.655Z,6.55
2022-08-24T21:18:33.219Z,7.13
2022-08-24T21:21:03.735Z,6.40
2022-08-24T21:23:35.426Z,7.78
2022-08-24T21:26:06.178Z,6.68
2022-08-24T21:28:35.757Z,9.20
2022-08-24T21:31:06.441Z,6.72
2022-08-24T21:33:52.534Z,7.47
2022-08-24T21:36:23.582Z,6.90
2022-08-24T21:38:54.786Z,9.77
2022-08-24T21:41:23.261Z,6.47
2022-08-24T21:43:52.164Z,6.63
2022-08-24T21:46:20.658Z,7.40
2022-08-24T21:48:49.066Z,6.43
2022-08-24T21:51:17.442Z,7.97
2022-08-24T21:53:46.599Z,9.13
2022-08-24T21:56:19.200Z,7.97
2022-08-24T21:58:47.583Z,8.43
2022-08-24T22:01:16.255Z,9.23
2022-08-24T22:03:44.394Z,6.70
2022-08-24T22:06:13.949Z,7.47
2022-08-24T22:08:44.334Z,9.15
2022-08-24T22:11:14.492Z,7.57
2022-08-24T22:13:44.175Z,8.05
2022-08-24T22:16:13.642Z,8.43
2022-08-24T22:18:42.334Z,8.32
2022-08-24T22:21:12.008Z,8.35
2022-08-24T22:23:40.967Z,7.85
2022-08-24T22:26:10.497Z,8.00
2022-08-24T22:28:40.552Z,9.30
2022-08-24T22:31:19.247Z,7.40
2022-08-24T22:33:48.216Z,8.75
2022-08-24T22:36:17.966Z,7.93
2022-08-24T22:38:46.692Z,8.23
2022-08-24T22:41:15.634Z,9.43
2022-08-24T22:44:01.555Z,7.10
2022-08-24T22:46:31.517Z,9.00
2022-08-24T22:49:01.193Z,6.68
2022-08-24T22:51:30.460Z,6.65
2022-08-24T22:53:59.046Z,8.25
2022-08-24T22:56:29.617Z,7.88
2022-08-24T22:58:58.481Z,8.25
2022-08-24T23:01:29.516Z,7.43
2022-08-24T23:04:01.512Z,8.60
2022-08-24T23:06:30.522Z,9.00
2022-08-24T23:08:59.470Z,9.23
2022-08-24T23:11:28.545Z,10.18
2022-08-24T23:13:59.210Z,11.50
2022-08-24T23:16:28.395Z,8.80
2022-08-24T23:19:15.906Z,9.80
2022-08-24T23:21:44.851Z,9.25
2022-08-24T23:24:13.778Z,9.45
2022-08-24T23:26:43.762Z,9.40
2022-08-24T23:29:14.047Z,9.90
2022-08-24T23:31:43.716Z,10.07
2022-08-24T23:34:13.658Z,8.82
2022-08-24T23:36:42.149Z,12.20
2022-08-24T23:39:11.759Z,8.45
2022-08-24T23:41:42.802Z,10.15
2022-08-24T23:44:16.480Z,9.88
2022-08-24T23:46:45.925Z,9.68
2022-08-24T23:49:18.019Z,12.77
2022-08-24T23:51:46.585Z,14.50
2022-08-24T23:54:15.024Z,11.63
2022-08-24T23:56:45.979Z,10.00
2022-08-24T23:59:19.381Z,11.27
